Time;durP1;ratioP1;P1;durP2;ratioP2;P2;SDS_P1;SDS_P2;PMS_P1;PMS_P2;Temp;Humidity;BMP_temperature;BMP_pressure;BME280_temperature;BME280_humidity;BME280_pressure;Samples;Min_cycle;Max_cycle;Signal;HPM_P1;HPM_P2
2023/05/24 00:00:35;;;;;;;4.40;4.00;;;;;;;12.96;100.00;63342.38;5112751;28;20217;-81
2023/05/24 00:03:04;;;;;;;6.82;4.40;;;;;;;12.96;100.00;63339.31;5127117;28;20219;-81
2023/05/24 00:05:31;;;;;;;4.22;3.83;;;;;;;12.82;100.00;63325.81;5117546;28;20215;-81
2023/05/24 00:07:59;;;;;;;4.40;4.03;;;;;;;12.85;100.00;63330.97;5109504;28;20219;-82
2023/05/24 00:10:26;;;;;;;4.60;4.22;;;;;;;13.00;100.00;63343.97;5109820;28;20192;-82
2023/05/24 00:12:53;;;;;;;4.72;4.35;;;;;;;12.88;100.00;63331.00;5111077;28;20216;-79
2023/05/24 00:15:20;;;;;;;4.05;3.70;;;;;;;12.93;100.00;63336.19;5109650;28;20227;-82
2023/05/24 00:17:48;;;;;;;4.50;4.10;;;;;;;12.81;100.00;63319.16;5112467;28;20220;-81
2023/05/24 00:20:15;;;;;;;4.65;4.32;;;;;;;12.74;100.00;63314.97;5108718;28;20261;-80
2023/05/24 00:22:43;;;;;;;3.83;3.63;;;;;;;12.69;100.00;63309.25;5109119;28;20211;-81
2023/05/24 00:25:11;;;;;;;4.47;4.18;;;;;;;12.92;100.00;63332.59;5110129;28;20208;-82
2023/05/24 00:27:38;;;;;;;4.13;3.90;;;;;;;12.80;100.00;63320.66;5123935;28;20318;-79
2023/05/24 00:30:07;;;;;;;6.78;3.90;;;;;;;12.90;100.00;63333.06;5128486;28;20196;-81
2023/05/24 00:32:34;;;;;;;4.60;4.18;;;;;;;12.89;100.00;63332.53;5118556;28;20220;-82
2023/05/24 00:35:02;;;;;;;4.63;4.22;;;;;;;12.88;100.00;63328.44;5111870;28;20290;-80
2023/05/24 00:37:30;;;;;;;4.50;4.13;;;;;;;12.86;100.00;63323.81;5110517;28;20234;-81
2023/05/24 00:39:57;;;;;;;4.93;4.40;;;;;;;12.79;100.00;63317.06;5111009;28;20237;-81
2023/05/24 00:42:25;;;;;;;4.85;4.32;;;;;;;12.74;100.00;63314.97;5109992;28;20278;-81
2023/05/24 00:44:52;;;;;;;4.38;3.97;;;;;;;12.78;100.00;63321.69;5124407;28;20200;-81
2023/05/24 00:47:19;;;;;;;6.15;4.30;;;;;;;12.77;100.00;63320.63;5125841;28;20215;-82
2023/05/24 00:49:47;;;;;;;4.80;4.50;;;;;;;12.68;100.00;63313.34;5108731;28;20215;-83
2023/05/24 00:52:15;;;;;;;5.07;4.68;;;;;;;12.57;100.00;63289.16;5109075;28;20237;-80
2023/05/24 00:54:42;;;;;;;8.75;4.38;;;;;;;12.49;100.00;63291.06;5111907;28;20220;-78
2023/05/24 00:57:12;;;;;;;4.18;3.90;;;;;;;12.34;100.00;63273.47;5110564;27;20567;-81
2023/05/24 00:59:41;;;;;;;4.57;4.18;;;;;;;12.37;100.00;63274.03;5108210;28;20187;-80
2023/05/24 01:02:08;;;;;;;4.68;4.38;;;;;;;12.01;100.00;63244.38;5119870;28;20246;-80
2023/05/24 01:04:37;;;;;;;4.72;4.15;;;;;;;11.96;100.00;63229.00;5131018;28;20206;-79
2023/05/24 01:07:17;;;;;;;5.93;4.57;;;;;;;12.22;100.00;63260.53;5129784;28;20219;-80
2023/05/24 01:09:59;;;;;;;5.50;4.57;;;;;;;12.20;100.00;63261.53;5117433;28;20551;-79
2023/05/24 01:12:37;;;;;;;5.32;3.90;;;;;;;12.13;100.00;63248.66;5123620;28;20257;-81
2023/05/24 01:15:16;;;;;;;4.63;4.22;;;;;;;11.98;100.00;63238.72;5109857;28;20222;-82
2023/05/24 01:17:51;;;;;;;4.60;4.20;;;;;;;12.08;100.00;63246.53;5112463;28;20645;-82
2023/05/24 01:20:21;;;;;;;4.80;4.40;;;;;;;12.05;100.00;63243.44;5108910;28;20199;-81
2023/05/24 01:23:06;;;;;;;4.57;4.20;;;;;;;12.02;100.00;63240.31;5110166;28;20216;-82
2023/05/24 01:25:47;;;;;;;5.47;4.97;;;;;;;11.91;100.00;63225.84;5108661;28;20180;-81
2023/05/24 01:28:18;;;;;;;4.57;4.20;;;;;;;11.93;100.00;63228.44;5116589;28;20437;-81
2023/05/24 01:30:45;;;;;;;7.28;4.50;;;;;;;11.89;100.00;63228.88;5127476;28;20195;-79
2023/05/24 01:33:12;;;;;;;4.90;4.38;;;;;;;11.89;100.00;63224.28;5129221;28;20199;-80
2023/05/24 01:35:41;;;;;;;6.40;4.72;;;;;;;11.90;100.00;63233.00;5110980;28;20233;-80
2023/05/24 01:38:09;;;;;;;4.68;4.30;;;;;;;11.83;100.00;63220.63;5124981;28;20527;-78
2023/05/24 01:40:39;;;;;;;4.68;4.38;;;;;;;11.84;100.00;63221.66;5126963;28;20241;-80
2023/05/24 01:43:15;;;;;;;5.35;4.95;;;;;;;11.83;100.00;63215.00;5109038;28;20216;-80
2023/05/24 01:45:54;;;;;;;5.82;5.30;;;;;;;11.74;100.00;63208.22;5108263;28;20195;-81
2023/05/24 01:48:43;;;;;;;6.13;5.55;;;;;;;11.76;100.00;63218.47;5109983;28;20226;-80
2023/05/24 01:51:11;;;;;;;7.82;5.97;;;;;;;11.69;100.00;63206.13;5108918;28;20234;-81
2023/05/24 01:53:46;;;;;;;7.28;5.93;;;;;;;11.48;100.00;63184.88;5118100;28;20200;-80
2023/05/24 01:56:16;;;;;;;10.13;6.78;;;;;;;11.41;100.00;63177.09;5127332;28;20226;-81
2023/05/24 01:58:45;;;;;;;7.70;5.68;;;;;;;11.63;100.00;63200.41;5127827;28;20192;-81
2023/05/24 02:01:14;;;;;;;6.07;5.40;;;;;;;11.62;100.00;63199.38;5130645;28;20218;-81
2023/05/24 02:03:42;;;;;;;6.32;5.50;;;;;;;11.52;100.00;63186.47;5115809;28;20200;-79
2023/05/24 02:06:09;;;;;;;5.47;4.93;;;;;;;11.51;100.00;63190.00;5129689;28;20227;-80
2023/05/24 02:08:36;;;;;;;5.82;5.20;;;;;;;11.57;100.00;63191.13;5130867;28;20203;-81
2023/05/24 02:11:04;;;;;;;5.28;4.78;;;;;;;11.34;100.00;63172.91;5129486;28;20507;-81
2023/05/24 02:13:31;;;;;;;7.28;5.88;;;;;;;10.89;100.00;63123.25;5110554;28;20200;-81
2023/05/24 02:15:58;;;;;;;5.78;5.13;;;;;;;11.18;100.00;63156.34;5111094;28;20287;-80
2023/05/24 02:18:33;;;;;;;7.88;6.43;;;;;;;11.17;100.00;63152.75;5113326;28;20199;-82
2023/05/24 02:21:01;;;;;;;6.13;5.15;;;;;;;11.18;100.00;63150.72;5121689;28;20195;-81
2023/05/24 02:23:29;;;;;;;6.72;4.82;;;;;;;11.15;100.00;63150.16;5131549;28;20200;-80
2023/05/24 02:25:56;;;;;;;8.98;4.95;;;;;;;11.09;100.00;63143.97;5130643;28;20259;-79
2023/05/24 02:28:23;;;;;;;5.32;4.75;;;;;;;11.05;100.00;63137.25;5132700;28;20199;-80
2023/05/24 02:30:50;;;;;;;7.78;5.00;;;;;;;11.01;100.00;63138.22;5115435;28;20196;-81
2023/05/24 02:33:17;;;;;;;7.40;5.32;;;;;;;10.97;100.00;63132.06;5111623;28;20219;-79
2023/05/24 02:35:46;;;;;;;5.28;4.72;;;;;;;10.95;100.00;63127.44;5112391;28;20232;-81
2023/05/24 02:38:13;;;;;;;5.35;4.68;;;;;;;11.07;100.00;63141.88;5112465;28;20192;-80
2023/05/24 02:40:40;;;;;;;5.43;4.68;;;;;;;11.07;100.00;63142.41;5112310;28;20219;-80
2023/05/24 02:43:08;;;;;;;4.97;4.35;;;;;;;11.10;100.00;63144.97;5110888;28;20425;-81
2023/05/24 02:45:36;;;;;;;5.93;4.38;;;;;;;11.06;100.00;63141.34;5109870;28;20425;-80
2023/05/24 02:48:03;;;;;;;6.22;4.03;;;;;;;11.08;100.00;63140.38;5114243;28;20269;-82
2023/05/24 02:50:30;;;;;;;4.85;4.20;;;;;;;11.06;100.00;63143.41;5119754;28;20191;-81
2023/05/24 02:52:59;;;;;;;12.40;4.32;;;;;;;11.14;100.00;63146.59;5132053;28;20234;-81
2023/05/24 02:55:27;;;;;;;4.53;4.22;;;;;;;11.10;100.00;63140.41;5122805;28;20236;-79
2023/05/24 02:57:55;;;;;;;5.53;4.88;;;;;;;11.10;100.00;63145.50;5111705;28;20382;-82
2023/05/24 03:00:22;;;;;;;5.25;4.72;;;;;;;11.10;100.00;63142.44;5124786;28;20282;-80
2023/05/24 03:02:51;;;;;;;5.88;5.35;;;;;;;11.11;100.00;63151.13;5132994;28;20195;-80
2023/05/24 03:05:21;;;;;;;4.80;4.40;;;;;;;11.14;100.00;63146.59;5117107;28;20200;-80
2023/05/24 03:07:49;;;;;;;4.75;3.83;;;;;;;11.24;100.00;63160.00;5114057;28;20269;-80
2023/05/24 03:10:17;;;;;;;4.63;4.32;;;;;;;11.33;100.00;63171.88;5133352;28;20195;-81
2023/05/24 03:12:44;;;;;;;4.38;4.07;;;;;;;11.39;100.00;63173.00;5131916;28;20239;-80
2023/05/24 03:15:12;;;;;;;4.10;3.78;;;;;;;11.47;100.00;63183.84;5115026;27;20234;-81
2023/05/24 03:17:39;;;;;;;3.95;3.65;;;;;;;11.40;100.00;63174.03;5114953;28;20220;-81
2023/05/24 03:20:07;;;;;;;5.28;4.13;;;;;;;11.52;100.00;63191.03;5110469;28;20480;-82
2023/05/24 03:22:35;;;;;;;4.75;4.30;;;;;;;11.45;100.00;63181.25;5117246;28;20215;-82
2023/05/24 03:25:02;;;;;;;5.68;4.03;;;;;;;11.70;100.00;63207.16;5132122;28;20191;-81
2023/05/24 03:27:31;;;;;;;4.47;3.85;;;;;;;11.77;100.00;63211.84;5128833;28;20264;-81
2023/05/24 03:29:58;;;;;;;4.50;4.10;;;;;;;11.86;100.00;63221.19;5131760;28;20195;-78
2023/05/24 03:32:25;;;;;;;4.32;3.92;;;;;;;11.91;100.00;63228.91;5133501;28;20207;-81
2023/05/24 03:34:53;;;;;;;3.90;3.42;;;;;;;12.01;100.00;63233.66;5129550;28;20191;-81
2023/05/24 03:37:20;;;;;;;3.75;3.47;;;;;;;12.05;100.00;63248.53;5116828;27;20212;-81
2023/05/24 03:39:47;;;;;;;5.18;4.68;;;;;;;12.14;100.00;63254.78;5109433;28;20196;-81
2023/05/24 03:42:16;;;;;;;7.30;3.78;;;;;;;12.26;100.00;63262.66;5109797;28;20216;-82
2023/05/24 03:44:44;;;;;;;5.50;4.70;;;;;;;12.33;100.00;63269.38;5111493;28;20208;-80
2023/05/24 03:47:12;;;;;;;4.85;4.50;;;;;;;12.46;100.00;63287.94;5109654;28;20216;-82
2023/05/24 03:49:39;;;;;;;4.13;3.83;;;;;;;12.56;100.00;63293.22;5111690;28;20196;-81
2023/05/24 03:52:06;;;;;;;4.97;4.57;;;;;;;12.60;100.00;63297.38;5109512;28;20223;-80
2023/05/24 03:54:33;;;;;;;6.50;4.88;;;;;;;12.70;100.00;63313.38;5114848;28;20203;-81
2023/05/24 03:57:00;;;;;;;7.05;4.72;;;;;;;12.91;100.00;63334.13;5132277;28;20257;-80
2023/05/24 03:59:27;;;;;;;3.95;3.53;;;;;;;13.04;100.00;63345.59;5129105;28;20199;-81
2023/05/24 04:01:55;;;;;;;5.78;4.18;;;;;;;13.21;100.00;63360.13;5128415;28;20222;-81
2023/05/24 04:04:23;;;;;;;4.70;4.30;;;;;;;13.33;98.39;63373.09;5126648;28;20210;-79
2023/05/24 04:06:50;;;;;;;7.10;4.80;;;;;;;13.45;98.26;63387.59;5128914;28;20488;-81
2023/05/24 04:09:17;;;;;;;6.18;4.65;;;;;;;13.55;98.97;63400.53;5129497;28;20196;-79
2023/05/24 04:11:44;;;;;;;4.90;4.38;;;;;;;13.57;98.26;63403.13;5128936;28;20219;-79
2023/05/24 04:14:11;;;;;;;6.97;5.10;;;;;;;13.65;99.42;63408.88;5128001;28;20203;-81
2023/05/24 04:16:38;;;;;;;5.85;4.90;;;;;;;13.74;100.00;63415.13;5129258;28;20239;-80
2023/05/24 04:19:06;;;;;;;5.30;4.78;;;;;;;13.83;100.00;63425.00;5128656;28;20575;-80
2023/05/24 04:21:35;;;;;;;5.30;4.80;;;;;;;13.71;100.00;63412.53;5115202;28;20238;-79
2023/05/24 04:24:03;;;;;;;7.13;5.22;;;;;;;13.57;100.00;63394.94;5130913;28;20233;-81
2023/05/24 04:26:30;;;;;;;5.35;4.95;;;;;;;13.59;100.00;63407.75;5127271;28;20215;-81
2023/05/24 04:28:57;;;;;;;5.68;5.22;;;;;;;13.75;100.00;63418.75;5126686;28;20206;-79
2023/05/24 04:31:25;;;;;;;8.75;6.20;;;;;;;13.85;100.00;63427.06;5113544;28;20215;-81
2023/05/24 04:33:52;;;;;;;6.20;5.60;;;;;;;13.98;100.00;63442.59;5106748;28;20211;-78
2023/05/24 04:36:21;;;;;;;8.35;5.43;;;;;;;13.98;100.00;63442.09;5107188;28;20261;-80
2023/05/24 04:38:49;;;;;;;10.07;5.72;;;;;;;13.82;100.00;63426.50;5119953;28;20195;-79
2023/05/24 04:41:16;;;;;;;7.03;5.63;;;;;;;13.67;100.00;63408.38;5107899;28;20222;-79
2023/05/24 04:43:43;;;;;;;8.13;5.80;;;;;;;13.80;100.00;63429.53;5109155;28;20222;-79
2023/05/24 04:46:11;;;;;;;6.25;5.75;;;;;;;13.85;100.00;63429.63;5109301;28;20237;-79
2023/05/24 04:48:41;;;;;;;6.18;5.65;;;;;;;14.04;100.00;63448.31;5114071;28;20203;-80
2023/05/24 04:51:08;;;;;;;6.30;5.50;;;;;;;14.11;100.00;63453.53;5107954;28;20294;-80
2023/05/24 04:53:37;;;;;;;8.00;5.35;;;;;;;14.13;100.00;63457.66;5113090;28;20204;-80
2023/05/24 04:56:04;;;;;;;6.60;5.90;;;;;;;14.55;100.00;63506.41;5108912;28;20232;-81
2023/05/24 04:58:32;;;;;;;6.13;5.60;;;;;;;14.62;100.00;63509.09;5126151;28;20269;-80
2023/05/24 05:00:59;;;;;;;5.80;5.20;;;;;;;14.72;100.00;63518.97;5127649;28;20244;-78
2023/05/24 05:03:26;;;;;;;9.88;5.40;;;;;;;14.77;100.00;63527.22;5127546;28;20194;-81
2023/05/24 05:05:53;;;;;;;6.47;5.45;;;;;;;14.76;99.50;63528.75;5125396;28;20224;-80
2023/05/24 05:08:20;;;;;;;7.40;6.25;;;;;;;14.90;99.35;63538.19;5127816;28;20267;-81
2023/05/24 05:10:49;;;;;;;5.38;4.97;;;;;;;15.00;96.82;63546.00;5126715;28;20201;-79
2023/05/24 05:13:17;;;;;;;5.82;5.43;;;;;;;15.14;94.31;63562.06;5125717;28;20555;-81
2023/05/24 05:15:44;;;;;;;8.35;6.38;;;;;;;15.14;96.55;63556.94;5127960;28;20278;-81
2023/05/24 05:18:11;;;;;;;6.43;5.82;;;;;;;15.33;94.63;63581.81;5119706;28;20259;-79
2023/05/24 05:20:38;;;;;;;7.82;6.13;;;;;;;15.49;90.31;63601.03;5106861;28;20195;-80
2023/05/24 05:23:05;;;;;;;7.35;6.50;;;;;;;15.62;89.97;63611.97;5131028;28;20388;-81
2023/05/24 05:25:32;;;;;;;7.95;5.53;;;;;;;15.70;87.59;63620.81;5128889;28;20216;-78
2023/05/24 05:28:01;;;;;;;6.65;5.57;;;;;;;15.69;87.79;63619.25;5126632;28;20306;-79
2023/05/24 05:30:28;;;;;;;6.90;6.30;;;;;;;15.82;89.79;63632.78;5114703;28;20414;-81
2023/05/24 05:32:55;;;;;;;10.15;7.57;;;;;;;15.83;89.65;63631.78;5106529;28;20219;-81
2023/05/24 05:35:22;;;;;;;6.93;6.30;;;;;;;16.05;86.68;63654.63;5115340;28;20221;-81
2023/05/24 05:37:50;;;;;;;9.45;6.90;;;;;;;16.14;85.15;63666.03;5131727;28;20230;-81
2023/05/24 05:40:17;;;;;;;9.02;6.13;;;;;;;16.09;85.19;63666.00;5121367;28;20199;-80
2023/05/24 05:42:46;;;;;;;7.75;5.53;;;;;;;15.96;86.92;63645.28;5123001;28;20220;-80
2023/05/24 05:45:14;;;;;;;8.07;5.70;;;;;;;16.19;86.21;63671.78;5120052;28;20229;-82
2023/05/24 05:47:42;;;;;;;9.57;5.70;;;;;;;16.43;84.33;63691.06;5119236;28;20219;-82
2023/05/24 05:50:09;;;;;;;8.15;5.70;;;;;;;16.70;83.53;63723.81;5116633;28;20213;-82
2023/05/24 05:52:36;;;;;;;11.75;6.40;;;;;;;16.65;82.02;63718.59;5116500;28;20235;-82
2023/05/24 05:55:03;;;;;;;5.18;4.72;;;;;;;16.68;80.30;63721.72;5123955;28;20196;-81
2023/05/24 05:57:30;;;;;;;8.98;6.18;;;;;;;16.75;81.75;63731.59;5119894;28;20462;-82
2023/05/24 05:59:57;;;;;;;6.03;5.38;;;;;;;16.77;80.20;63731.09;5122552;28;20192;-82
2023/05/24 06:02:25;;;;;;;5.30;4.90;;;;;;;16.81;83.23;63735.78;5119842;28;20261;-81
2023/05/24 06:04:52;;;;;;;6.18;5.53;;;;;;;16.92;82.78;63752.38;5115247;28;20211;-81
2023/05/24 06:07:19;;;;;;;6.68;5.53;;;;;;;17.09;78.12;63764.91;5119576;28;20230;-78
2023/05/24 06:09:46;;;;;;;8.48;6.05;;;;;;;17.08;77.15;63763.34;5115092;28;20188;-78
2023/05/24 06:12:13;;;;;;;6.55;5.70;;;;;;;17.00;77.34;63752.44;5120666;28;20219;-77
2023/05/24 06:14:40;;;;;;;5.85;5.35;;;;;;;17.07;75.73;63762.31;5120237;28;20223;-78
2023/05/24 06:17:08;;;;;;;6.28;5.13;;;;;;;17.12;77.11;63768.03;5109078;28;20231;-79
2023/05/24 06:19:37;;;;;;;6.38;5.07;;;;;;;17.16;78.56;63772.19;5119933;28;20192;-80
2023/05/24 06:22:04;;;;;;;5.75;5.00;;;;;;;17.16;77.79;63771.69;5116747;28;20221;-78
2023/05/24 06:24:33;;;;;;;11.07;5.20;;;;;;;17.13;78.65;63768.56;5109499;28;20218;-78
2023/05/24 06:27:00;;;;;;;5.88;5.38;;;;;;;17.12;74.72;63772.66;5115770;28;20210;-79
2023/05/24 06:29:27;;;;;;;6.75;6.07;;;;;;;17.39;72.80;63795.09;5129039;28;20205;-77
2023/05/24 06:31:54;;;;;;;6.97;5.45;;;;;;;17.64;72.94;63824.25;5127147;28;20219;-78
2023/05/24 06:34:21;;;;;;;10.18;5.43;;;;;;;17.61;71.34;63818.03;5119531;28;20200;-77
2023/05/24 06:36:51;;;;;;;5.85;5.28;;;;;;;17.50;68.14;63807.09;5108257;28;20235;-77
2023/05/24 06:39:19;;;;;;;6.40;4.82;;;;;;;17.43;70.75;63801.84;5108238;28;20415;-77
2023/05/24 06:41:49;;;;;;;5.43;4.93;;;;;;;17.53;70.69;63812.28;5115335;28;20338;-79
2023/05/24 06:44:17;;;;;;;4.85;4.45;;;;;;;17.86;67.94;63847.16;5125868;28;20522;-79
2023/05/24 06:46:44;;;;;;;10.73;5.13;;;;;;;17.97;67.51;63856.03;5119466;28;20539;-80
2023/05/24 06:49:12;;;;;;;7.47;4.30;;;;;;;18.16;64.49;63872.72;5112341;28;20195;-78
2023/05/24 06:51:39;;;;;;;5.75;5.28;;;;;;;18.25;65.39;63882.13;5111568;28;20274;-79
2023/05/24 06:54:07;;;;;;;6.05;5.13;;;;;;;18.17;64.70;63876.88;5119381;28;20206;-77
2023/05/24 06:56:35;;;;;;;4.78;4.40;;;;;;;18.31;64.53;63893.50;5108662;28;20226;-79
2023/05/24 06:59:01;;;;;;;8.82;5.00;;;;;;;18.55;63.20;63923.19;5123775;28;20526;-78
2023/05/24 07:01:29;;;;;;;4.60;4.20;;;;;;;18.76;62.95;63935.28;5108452;28;20223;-79
2023/05/24 07:03:57;;;;;;;5.10;4.60;;;;;;;18.65;62.22;63925.88;5114208;28;20202;-81
2023/05/24 07:06:24;;;;;;;8.00;4.82;;;;;;;18.69;59.87;63935.22;5118429;28;20211;-79
2023/05/24 07:08:51;;;;;;;4.43;4.05;;;;;;;18.74;61.33;63937.84;5119951;28;20261;-80
2023/05/24 07:11:19;;;;;;;5.72;4.63;;;;;;;18.78;60.33;63939.41;5107446;28;20216;-80
2023/05/24 07:13:46;;;;;;;7.03;4.93;;;;;;;18.78;60.75;63937.34;5107891;28;20213;-79
2023/05/24 07:16:14;;;;;;;5.10;4.45;;;;;;;19.01;60.34;63966.50;5107468;28;20225;-79
2023/05/24 07:18:41;;;;;;;8.50;5.15;;;;;;;19.15;60.58;63978.00;5107600;28;20245;-80
2023/05/24 07:21:08;;;;;;;6.68;5.32;;;;;;;19.09;58.74;63969.69;5109472;28;20225;-78
2023/05/24 07:23:36;;;;;;;6.38;5.65;;;;;;;19.20;59.72;63981.16;5109802;28;20210;-80
2023/05/24 07:26:03;;;;;;;6.82;5.07;;;;;;;19.24;59.21;63989.97;5122618;28;20272;-81
2023/05/24 07:28:32;;;;;;;5.75;4.43;;;;;;;19.40;58.79;64009.25;5112983;28;20228;-80
2023/05/24 07:30:59;;;;;;;5.80;4.60;;;;;;;19.50;58.42;64014.50;5128499;28;20194;-79
2023/05/24 07:33:26;;;;;;;9.40;5.13;;;;;;;19.59;59.35;64023.88;5121463;28;20423;-78
2023/05/24 07:35:53;;;;;;;7.50;5.15;;;;;;;19.75;56.13;64040.59;5112941;28;20187;-78
2023/05/24 07:38:20;;;;;;;9.45;4.65;;;;;;;19.85;58.52;64053.06;5110784;28;20467;-79
2023/05/24 07:40:47;;;;;;;6.07;5.47;;;;;;;20.04;58.39;64072.91;5108485;28;20196;-80
2023/05/24 07:43:15;;;;;;;6.93;5.80;;;;;;;20.16;57.53;64082.84;5117559;28;20206;-78
2023/05/24 07:45:44;;;;;;;6.57;5.63;;;;;;;20.24;60.39;64093.78;5128319;28;20214;-78
2023/05/24 07:48:11;;;;;;;12.38;5.75;;;;;;;20.13;56.64;64082.28;5113855;28;20222;-78
2023/05/24 07:50:38;;;;;;;7.03;5.45;;;;;;;19.96;54.92;64062.50;5108920;28;20192;-77
2023/05/24 07:53:06;;;;;;;6.05;5.40;;;;;;;19.98;53.55;64069.22;5122383;28;20224;-79
2023/05/24 07:55:32;;;;;;;5.60;5.10;;;;;;;20.04;58.07;64075.47;5107250;28;20429;-79
2023/05/24 07:58:00;;;;;;;6.50;5.90;;;;;;;20.20;58.87;64090.16;5107162;28;20276;-78
2023/05/24 08:00:27;;;;;;;6.50;5.95;;;;;;;20.37;56.66;64105.28;5109477;28;20195;-79
2023/05/24 08:02:56;;;;;;;7.18;5.28;;;;;;;20.33;53.60;64105.75;5127508;28;20242;-78
2023/05/24 08:05:23;;;;;;;8.63;5.68;;;;;;;20.28;56.11;64095.91;5129982;28;20232;-79
2023/05/24 08:07:50;;;;;;;5.35;4.85;;;;;;;20.06;51.20;64072.41;5127229;28;20228;-77
2023/05/24 08:10:17;;;;;;;8.77;5.70;;;;;;;20.20;54.80;64089.63;5110298;28;20199;-78
2023/05/24 08:12:45;;;;;;;4.85;4.28;;;;;;;20.30;51.91;64100.56;5106257;28;20222;-80
2023/05/24 08:15:12;;;;;;;6.68;5.15;;;;;;;20.21;52.91;64090.66;5107176;28;20556;-78
2023/05/24 08:17:39;;;;;;;7.07;5.13;;;;;;;20.35;52.25;64100.09;5108903;28;20254;-79
2023/05/24 08:20:12;;;;;;;6.53;5.07;;;;;;;20.58;52.13;64124.09;5129292;28;20195;-82
2023/05/24 08:22:39;;;;;;;5.35;4.85;;;;;;;20.77;51.57;64148.59;5127558;28;20215;-82
2023/05/24 08:25:07;;;;;;;8.05;5.15;;;;;;;20.79;50.17;64145.50;5128278;28;20222;-79
2023/05/24 08:27:34;;;;;;;7.90;5.03;;;;;;;20.72;50.67;64141.31;5119147;28;20230;-79
2023/05/24 08:30:01;;;;;;;3.80;3.60;;;;;;;20.93;47.36;64165.81;5107323;28;20241;-80
2023/05/24 08:32:28;;;;;;;4.25;3.88;;;;;;;20.95;48.06;64165.31;5108813;28;20531;-79
2023/05/24 08:34:55;;;;;;;4.32;3.47;;;;;;;21.06;45.88;64178.88;5106478;28;20196;-78
2023/05/24 08:37:24;;;;;;;5.85;3.80;;;;;;;21.08;44.60;64181.50;5105544;28;20231;-80
2023/05/24 08:39:52;;;;;;;5.47;3.53;;;;;;;21.10;44.61;64178.41;5108194;28;20377;-78
2023/05/24 08:42:20;;;;;;;4.43;3.92;;;;;;;21.31;44.51;64208.09;5109643;28;20212;-79
2023/05/24 08:44:48;;;;;;;4.47;4.07;;;;;;;21.46;44.81;64221.19;5109300;28;20195;-78
2023/05/24 08:47:16;;;;;;;4.25;3.95;;;;;;;21.56;43.92;64225.91;5125581;28;20222;-79
2023/05/24 08:49:43;;;;;;;5.13;3.65;;;;;;;21.37;45.44;64213.84;5127392;28;20229;-80
2023/05/24 08:52:12;;;;;;;5.75;3.97;;;;;;;21.52;45.21;64221.75;5129002;28;20283;-80
2023/05/24 08:54:43;;;;;;;3.88;3.58;;;;;;;21.69;46.44;64247.81;5117495;28;20935;-80
2023/05/24 08:57:11;;;;;;;4.03;3.80;;;;;;;21.98;45.42;64277.63;5129248;28;20237;-80
2023/05/24 08:59:40;;;;;;;6.18;3.95;;;;;;;22.00;43.19;64277.13;5130857;28;20198;-80
2023/05/24 09:02:10;;;;;;;4.18;3.80;;;;;;;22.09;42.80;64283.41;5129626;28;20400;-79
2023/05/24 09:04:40;;;;;;;3.97;3.58;;;;;;;22.22;45.75;64297.50;5111459;28;20214;-79
2023/05/24 09:07:07;;;;;;;4.13;3.78;;;;;;;22.29;42.57;64304.28;5108700;28;20207;-79
2023/05/24 09:09:35;;;;;;;5.88;3.25;;;;;;;22.30;40.85;64310.53;5108538;28;20202;-80
2023/05/24 09:12:07;;;;;;;3.55;3.33;;;;;;;22.22;41.14;64297.50;5111195;28;20226;-79
2023/05/24 09:14:34;;;;;;;3.78;3.47;;;;;;;22.27;40.04;64307.38;5120135;28;20207;-79
2023/05/24 09:17:03;;;;;;;4.18;3.80;;;;;;;22.40;39.92;64318.41;5110699;28;20238;-80
2023/05/24 09:19:30;;;;;;;3.80;3.50;;;;;;;22.39;41.04;64317.88;5121486;28;20201;-79
2023/05/24 09:21:59;;;;;;;5.80;3.22;;;;;;;22.34;41.48;64309.53;5127462;28;20250;-78
2023/05/24 09:24:27;;;;;;;2.95;2.83;;;;;;;22.31;43.23;64306.91;5127665;28;20555;-79
2023/05/24 09:26:54;;;;;;;3.25;2.97;;;;;;;22.57;44.15;64333.59;5128995;28;20590;-79
2023/05/24 09:29:24;;;;;;;3.58;3.30;;;;;;;22.64;42.04;64343.50;5132718;28;20198;-80
2023/05/24 09:31:56;;;;;;;4.50;3.30;;;;;;;22.67;41.95;64349.75;5113926;28;20227;-80
2023/05/24 09:34:24;;;;;;;5.32;3.47;;;;;;;22.74;43.05;64354.47;5110754;28;20199;-81
2023/05/24 09:36:52;;;;;;;3.33;3.08;;;;;;;22.90;39.13;64370.69;5127701;28;20590;-80
2023/05/24 09:39:21;;;;;;;6.28;3.00;;;;;;;23.11;42.06;64394.72;5129377;28;20235;-78
2023/05/24 09:41:54;;;;;;;3.50;3.25;;;;;;;23.12;41.37;64391.09;5113103;28;20223;-80
2023/05/24 09:44:26;;;;;;;6.18;3.30;;;;;;;23.27;39.78;64406.78;5122000;28;20206;-80
2023/05/24 09:46:54;;;;;;;6.45;3.20;;;;;;;23.23;41.26;64399.50;5107808;28;20211;-79
2023/05/24 09:49:21;;;;;;;3.03;2.83;;;;;;;23.38;41.44;64415.72;5110177;28;20240;-81
2023/05/24 09:51:49;;;;;;;4.55;3.55;;;;;;;23.38;40.15;64417.78;5108465;28;20239;-80
2023/05/24 09:54:16;;;;;;;3.25;3.00;;;;;;;23.41;37.59;64426.13;5106562;28;20263;-79
2023/05/24 09:56:46;;;;;;;4.75;2.65;;;;;;;23.28;39.46;64407.84;5107137;28;20230;-79
2023/05/24 09:59:14;;;;;;;4.30;3.00;;;;;;;23.36;38.14;64416.22;5122643;28;20257;-78
2023/05/24 10:01:43;;;;;;;4.10;3.30;;;;;;;23.32;40.63;64414.09;5108796;28;20274;-79
2023/05/24 10:04:10;;;;;;;4.53;3.38;;;;;;;23.54;38.77;64434.53;5123944;28;20382;-78
2023/05/24 10:06:37;;;;;;;4.47;3.38;;;;;;;23.51;38.11;64431.91;5125538;28;20238;-78
2023/05/24 10:09:06;;;;;;;2.92;2.67;;;;;;;23.68;39.85;64449.69;5127044;28;20256;-79
2023/05/24 10:11:35;;;;;;;3.42;3.13;;;;;;;23.60;37.86;64443.94;5122525;28;20219;-79
2023/05/24 10:14:05;;;;;;;3.33;3.13;;;;;;;23.83;37.91;64468.00;5119220;28;20228;-79
2023/05/24 10:16:32;;;;;;;6.05;3.00;;;;;;;23.60;37.75;64443.94;5127575;28;20222;-78
2023/05/24 10:19:01;;;;;;;2.65;2.55;;;;;;;23.38;38.39;64417.78;5124505;28;20267;-80
2023/05/24 10:21:31;;;;;;;3.35;3.15;;;;;;;23.52;37.77;64432.44;5116495;28;20222;-78
2023/05/24 10:24:02;;;;;;;2.92;2.72;;;;;;;23.64;37.36;64453.31;5111415;28;20199;-79
2023/05/24 10:26:32;;;;;;;2.65;2.45;;;;;;;23.84;35.62;64465.91;5125902;28;20226;-80
2023/05/24 10:29:06;;;;;;;4.15;3.03;;;;;;;23.66;35.96;64450.19;5116154;27;20453;-78
2023/05/24 10:31:36;;;;;;;2.80;2.63;;;;;;;23.43;36.71;64420.94;5132165;28;20230;-79
2023/05/24 10:34:07;;;;;;;4.05;2.78;;;;;;;23.52;36.48;64435.03;5129228;28;20355;-79
2023/05/24 10:36:35;;;;;;;3.50;3.30;;;;;;;23.38;36.30;64418.31;5123972;28;20222;-78
2023/05/24 10:39:03;;;;;;;5.95;3.75;;;;;;;23.38;36.69;64418.31;5122311;28;20283;-78
2023/05/24 10:41:30;;;;;;;3.00;2.70;;;;;;;23.52;36.88;64430.34;5128517;28;20241;-78
2023/05/24 10:43:58;;;;;;;3.28;2.92;;;;;;;23.44;37.17;64435.00;5123495;27;20199;-76
2023/05/24 10:46:26;;;;;;;2.72;2.63;;;;;;;23.37;37.04;64422.47;5139996;27;20219;-78
2023/05/24 10:49:00;;;;;;;3.00;2.80;;;;;;;23.40;36.84;64417.28;5149976;27;20208;-77
2023/05/24 10:51:37;;;;;;;3.25;3.05;;;;;;;23.17;36.18;64396.31;5149604;27;20539;-79
2023/05/24 10:54:15;;;;;;;4.88;2.88;;;;;;;23.42;36.49;64419.88;5110225;28;20210;-78
2023/05/24 10:56:44;;;;;;;2.58;2.47;;;;;;;23.71;34.92;64454.91;5122583;27;20269;-79
2023/05/24 10:59:23;;;;;;;2.75;2.58;;;;;;;23.99;36.36;64481.63;5129997;28;20230;-80
2023/05/24 11:01:56;;;;;;;2.90;2.70;;;;;;;24.25;35.46;64513.53;5127016;28;20249;-79
2023/05/24 11:04:24;;;;;;;2.92;2.58;;;;;;;24.27;37.17;64510.94;5128812;28;20243;-79
2023/05/24 11:06:57;;;;;;;2.47;2.38;;;;;;;24.21;33.33;64506.75;5113753;28;20268;-79
2023/05/24 11:09:26;;;;;;;3.33;2.90;;;;;;;24.05;33.27;64490.00;5110607;28;20222;-77
2023/05/24 11:11:57;;;;;;;3.10;2.90;;;;;;;23.84;35.45;64471.66;5108615;28;20234;-78
2023/05/24 11:14:29;;;;;;;2.85;2.50;;;;;;;24.13;34.68;64495.75;5109284;28;20201;-79
2023/05/24 11:16:59;;;;;;;2.33;2.22;;;;;;;24.33;35.72;64517.22;5109719;28;20211;-80
2023/05/24 11:19:32;;;;;;;4.65;2.97;;;;;;;24.46;34.78;64527.69;5108945;28;20250;-79
2023/05/24 11:22:03;;;;;;;3.05;2.53;;;;;;;24.68;34.64;64555.94;5109248;28;20222;-78
2023/05/24 11:24:30;;;;;;;5.93;3.42;;;;;;;24.62;33.21;64547.59;5108754;28;20199;-77
2023/05/24 11:26:57;;;;;;;3.60;2.22;;;;;;;24.29;32.75;64515.13;5115175;28;20521;-79
2023/05/24 11:29:25;;;;;;;3.95;2.88;;;;;;;24.26;32.29;64509.91;5131524;28;20490;-78
2023/05/24 11:31:53;;;;;;;2.60;2.50;;;;;;;24.14;33.65;64502.53;5128066;28;20225;-80
2023/05/24 11:34:21;;;;;;;3.45;3.22;;;;;;;24.17;33.98;64503.06;5126599;28;20514;-80